Time;durP1;ratioP1;P1;durP2;ratioP2;P2;SDS_P1;SDS_P2;PMS_P1;PMS_P2;Temp;Humidity;BMP_temperature;BMP_pressure;BME280_temperature;BME280_humidity;BME280_pressure;Samples;Min_cycle;Max_cycle;Signal;HPM_P1;HPM_P2
2022/04/27 00:00:22;;;;;;;10.55;4.38;;;;;;;;;;5109272;27;20490;-65
2022/04/27 00:02:48;;;;;;;7.35;3.92;;;;;;;;;;5108415;27;20143;-64
2022/04/27 00:05:14;;;;;;;10.60;4.20;;;;;;;;;;5108958;27;20044;-64
2022/04/27 00:07:41;;;;;;;13.65;5.25;;;;;;;;;;5109085;27;20151;-64
2022/04/27 00:10:07;;;;;;;10.25;4.38;;;;;;;;;;5108349;27;20064;-64
2022/04/27 00:12:34;;;;;;;9.80;4.32;;;;;;;;;;5122347;27;20498;-64
2022/04/27 00:15:01;;;;;;;13.65;5.10;;;;;;;;;;5108108;27;20079;-64
2022/04/27 00:17:27;;;;;;;6.80;4.07;;;;;;;;;;5109261;27;20090;-64
2022/04/27 00:19:53;;;;;;;9.93;4.32;;;;;;;;;;5109152;27;20518;-64
2022/04/27 00:22:20;;;;;;;12.07;5.00;;;;;;;;;;5108818;27;20075;-64
2022/04/27 00:24:46;;;;;;;9.38;4.60;;;;;;;;;;5125394;27;20071;-64
2022/04/27 00:27:13;;;;;;;11.20;4.55;;;;;;;;;;5126959;27;20510;-65
2022/04/27 00:29:39;;;;;;;9.27;4.68;;;;;;;;;;5120451;27;20143;-64
2022/04/27 00:32:06;;;;;;;11.02;5.03;;;;;;;;;;5107639;27;20079;-64
2022/04/27 00:34:32;;;;;;;8.30;4.40;;;;;;;;;;5106944;27;20106;-64
2022/04/27 00:36:59;;;;;;;10.70;5.00;;;;;;;;;;5108060;27;20163;-64
2022/04/27 00:39:25;;;;;;;10.98;4.72;;;;;;;;;;5124751;27;20128;-64
2022/04/27 00:42:02;;;;;;;12.00;4.60;;;;;;;;;;5128393;27;20128;-64
2022/04/27 00:44:29;;;;;;;10.45;4.75;;;;;;;;;;5114549;27;20140;-64
2022/04/27 00:46:55;;;;;;;12.75;4.85;;;;;;;;;;5113944;27;20060;-64
2022/04/27 00:49:22;;;;;;;12.25;5.22;;;;;;;;;;5122974;27;20072;-64
2022/04/27 00:51:49;;;;;;;11.70;5.18;;;;;;;;;;5115883;27;20138;-64
2022/04/27 00:54:16;;;;;;;14.65;5.10;;;;;;;;;;5127152;27;20153;-64
2022/04/27 00:56:42;;;;;;;10.35;4.70;;;;;;;;;;5129041;27;20051;-64
2022/04/27 00:59:09;;;;;;;9.30;4.30;;;;;;;;;;5122398;27;20047;-65
2022/04/27 01:01:35;;;;;;;11.45;4.53;;;;;;;;;;5118454;27;20144;-64
2022/04/27 01:04:05;;;;;;;11.65;4.72;;;;;;;;;;5115408;27;20061;-64
2022/04/27 01:06:31;;;;;;;10.98;5.10;;;;;;;;;;5128720;27;20649;-64
2022/04/27 01:08:57;;;;;;;9.25;4.68;;;;;;;;;;5110758;27;20678;-64
2022/04/27 01:11:24;;;;;;;13.15;4.65;;;;;;;;;;5128438;27;20071;-64
2022/04/27 01:13:50;;;;;;;9.60;4.55;;;;;;;;;;5122078;27;20076;-64
2022/04/27 01:16:17;;;;;;;16.23;4.57;;;;;;;;;;5108498;27;20080;-64
2022/04/27 01:18:44;;;;;;;10.30;4.30;;;;;;;;;;5122645;27;20078;-65
2022/04/27 01:21:11;;;;;;;10.95;4.57;;;;;;;;;;5128530;27;20090;-64
2022/04/27 01:23:39;;;;;;;8.93;4.75;;;;;;;;;;5124045;27;20048;-64
2022/04/27 01:26:05;;;;;;;10.10;4.80;;;;;;;;;;5109539;27;20079;-65
2022/04/27 01:28:33;;;;;;;9.90;4.35;;;;;;;;;;5128527;27;20056;-64
2022/04/27 01:31:01;;;;;;;11.32;4.53;;;;;;;;;;5106513;27;20083;-64
2022/04/27 01:33:28;;;;;;;10.98;4.43;;;;;;;;;;5107009;27;20052;-64
2022/04/27 01:35:54;;;;;;;9.70;4.82;;;;;;;;;;5107587;27;20209;-64
2022/04/27 01:38:20;;;;;;;9.10;4.72;;;;;;;;;;5105645;27;20087;-64
2022/04/27 01:40:47;;;;;;;8.68;4.35;;;;;;;;;;5106883;27;20075;-64
2022/04/27 01:43:15;;;;;;;9.95;4.50;;;;;;;;;;5107040;27;20117;-64
2022/04/27 01:45:45;;;;;;;9.45;4.25;;;;;;;;;;5108138;27;20079;-64
2022/04/27 01:48:12;;;;;;;11.13;4.63;;;;;;;;;;5108412;27;20059;-64
2022/04/27 01:50:38;;;;;;;8.85;4.75;;;;;;;;;;5108373;27;20080;-64
2022/04/27 01:55:50;;;;;;;9.75;4.93;;;;;;;;;;5110903;27;20506;-64
2022/04/27 01:58:17;;;;;;;9.00;4.60;;;;;;;;;;5111414;27;20056;-64
2022/04/27 02:00:46;;;;;;;11.25;4.78;;;;;;;;;;5110101;27;20075;-65
2022/04/27 02:03:13;;;;;;;;;;;;;;;;;;5111785;27;20490;-65
2022/04/27 02:05:39;;;;;;;11.35;4.63;;;;;;;;;;5108845;28;45015;-64
2022/04/27 02:08:06;;;;;;;11.43;4.78;;;;;;;;;;5111215;27;20087;-65
2022/04/27 02:10:32;;;;;;;9.40;4.53;;;;;;;;;;5128860;27;20144;-63
2022/04/27 02:12:58;;;;;;;9.65;4.90;;;;;;;;;;5131404;27;20130;-64
2022/04/27 02:15:25;;;;;;;9.00;4.88;;;;;;;;;;5129398;27;20039;-64
2022/04/27 02:17:52;;;;;;;9.40;4.88;;;;;;;;;;5131074;27;20510;-64
2022/04/27 02:20:18;;;;;;;10.75;4.70;;;;;;;;;;5114904;27;20092;-64
2022/04/27 02:22:45;;;;;;;11.23;5.40;;;;;;;;;;5122136;27;20047;-65
2022/04/27 02:25:12;;;;;;;6.78;4.10;;;;;;;;;;5130418;27;20075;-64
2022/04/27 02:27:38;;;;;;;11.43;5.03;;;;;;;;;;5131417;27;20079;-64
2022/04/27 02:30:05;;;;;;;9.75;4.68;;;;;;;;;;5111327;27;20079;-64
2022/04/27 02:32:31;;;;;;;8.00;4.57;;;;;;;;;;5110641;27;20079;-64
2022/04/27 02:34:57;;;;;;;12.38;4.80;;;;;;;;;;5119638;27;20080;-64
2022/04/27 02:37:24;;;;;;;9.95;4.80;;;;;;;;;;5125804;27;20101;-64
2022/04/27 02:39:50;;;;;;;11.43;5.75;;;;;;;;;;5110361;27;20545;-64
2022/04/27 02:42:17;;;;;;;9.10;5.50;;;;;;;;;;5110978;27;20080;-64
2022/04/27 02:44:44;;;;;;;9.95;4.53;;;;;;;;;;5110052;27;20075;-63
2022/04/27 02:47:10;;;;;;;9.70;5.00;;;;;;;;;;5110391;27;20555;-64
2022/04/27 02:52:22;;;;;;;13.48;5.78;;;;;;;;;;5131294;27;20138;-64
2022/04/27 02:54:48;;;;;;;12.05;5.00;;;;;;;;;;5129103;27;20067;-64
2022/04/27 02:57:16;;;;;;;10.45;5.30;;;;;;;;;;5130852;27;20132;-64
2022/04/27 02:59:42;;;;;;;10.40;5.57;;;;;;;;;;5118352;27;20110;-64
2022/04/27 03:02:09;;;;;;;9.93;5.15;;;;;;;;;;5109148;27;20086;-64
2022/04/27 03:04:35;;;;;;;10.38;5.47;;;;;;;;;;5116452;27;20082;-64
2022/04/27 03:07:03;;;;;;;15.18;5.85;;;;;;;;;;5130750;27;20079;-64
2022/04/27 03:09:29;;;;;;;11.38;5.53;;;;;;;;;;5123342;27;20518;-64
2022/04/27 03:11:55;;;;;;;9.70;5.30;;;;;;;;;;5130102;27;20170;-65
2022/04/27 03:14:22;;;;;;;10.30;5.75;;;;;;;;;;5129670;27;20155;-64
2022/04/27 03:16:48;;;;;;;13.38;5.75;;;;;;;;;;5129702;27;20125;-64
2022/04/27 03:19:15;;;;;;;9.57;4.95;;;;;;;;;;5118271;27;20056;-64
2022/04/27 03:21:41;;;;;;;11.82;5.22;;;;;;;;;;5111016;27;20106;-65
2022/04/27 03:24:08;;;;;;;10.45;5.32;;;;;;;;;;5109765;27;20075;-64
2022/04/27 03:26:34;;;;;;;13.13;5.97;;;;;;;;;;5112110;27;20143;-64
2022/04/27 03:29:00;;;;;;;10.52;5.00;;;;;;;;;;5120653;27;20130;-64
2022/04/27 03:31:27;;;;;;;12.40;5.22;;;;;;;;;;5124223;27;20143;-64
2022/04/27 03:33:53;;;;;;;8.75;5.30;;;;;;;;;;5130010;27;20062;-64
2022/04/27 03:36:19;;;;;;;9.98;5.03;;;;;;;;;;5130486;27;20138;-64
2022/04/27 03:38:48;;;;;;;10.20;5.18;;;;;;;;;;5112358;27;20147;-65
2022/04/27 03:41:17;;;;;;;11.70;5.28;;;;;;;;;;5122099;27;21003;-65
2022/04/27 03:43:44;;;;;;;14.35;5.05;;;;;;;;;;5130069;27;20440;-64
2022/04/27 03:46:10;;;;;;;12.10;5.07;;;;;;;;;;5126333;27;20145;-63
2022/04/27 03:48:50;;;;;;;9.95;4.95;;;;;;;;;;5115112;27;20047;-62
2022/04/27 03:51:17;;;;;;;8.18;4.82;;;;;;;;;;5127231;27;20052;-63
2022/04/27 03:53:44;;;;;;;9.50;4.60;;;;;;;;;;5130071;27;20101;-62
2022/04/27 03:56:10;;;;;;;8.75;4.53;;;;;;;;;;5129855;27;20079;-65
2022/04/27 03:58:37;;;;;;;9.27;4.78;;;;;;;;;;5125094;27;20143;-63
2022/04/27 04:01:03;;;;;;;10.40;5.15;;;;;;;;;;5118632;27;20858;-63
2022/04/27 04:03:29;;;;;;;10.25;5.47;;;;;;;;;;5128858;27;20185;-63
2022/04/27 04:05:56;;;;;;;13.30;5.20;;;;;;;;;;5120418;27;20507;-64
2022/04/27 04:08:22;;;;;;;9.85;5.20;;;;;;;;;;5110714;27;20075;-63
2022/04/27 04:10:49;;;;;;;9.98;5.45;;;;;;;;;;5117617;27;20129;-64
2022/04/27 04:13:15;;;;;;;8.95;5.38;;;;;;;;;;5129467;27;20060;-64
2022/04/27 04:15:42;;;;;;;11.52;5.10;;;;;;;;;;5128269;27;20087;-63
2022/04/27 04:18:08;;;;;;;13.43;5.57;;;;;;;;;;5126519;27;20122;-63
2022/04/27 04:20:34;;;;;;;9.75;4.88;;;;;;;;;;5122429;27;20143;-63
2022/04/27 04:23:01;;;;;;;10.15;5.10;;;;;;;;;;5129934;27;20055;-64
2022/04/27 04:28:30;;;;;;;11.10;5.25;;;;;;;;;;5128057;27;20078;-63
2022/04/27 04:30:58;;;;;;;10.77;5.65;;;;;;;;;;5126582;27;20147;-63
2022/04/27 04:33:24;;;;;;;14.90;5.57;;;;;;;;;;5129331;27;20517;-64
2022/04/27 04:35:51;;;;;;;12.18;5.40;;;;;;;;;;5128340;27;20713;-63
2022/04/27 04:38:18;;;;;;;9.15;5.25;;;;;;;;;;5122624;27;20840;-65
2022/04/27 04:40:45;;;;;;;9.80;5.53;;;;;;;;;;5118192;27;20052;-64
2022/04/27 04:43:11;;;;;;;11.20;5.70;;;;;;;;;;5109306;27;20114;-64
2022/04/27 04:45:38;;;;;;;12.52;5.35;;;;;;;;;;5113458;27;20079;-64
2022/04/27 04:48:04;;;;;;;15.57;5.63;;;;;;;;;;5128330;27;20386;-64
2022/04/27 04:50:31;;;;;;;11.18;6.00;;;;;;;;;;5125000;27;20080;-64
2022/04/27 04:52:57;;;;;;;11.25;5.90;;;;;;;;;;5108644;28;20080;-64
2022/04/27 04:55:23;;;;;;;9.65;5.18;;;;;;;;;;5107975;27;20194;-64
2022/04/27 04:57:50;;;;;;;8.07;4.53;;;;;;;;;;5108015;27;20155;-64
2022/04/27 05:00:16;;;;;;;12.18;4.97;;;;;;;;;;5118387;27;20532;-64
2022/04/27 05:02:42;;;;;;;10.10;4.85;;;;;;;;;;5128724;27;20190;-64
2022/04/27 05:05:09;;;;;;;11.55;4.88;;;;;;;;;;5126606;27;20048;-64
2022/04/27 05:07:35;;;;;;;10.65;5.00;;;;;;;;;;5122757;27;20138;-64
2022/04/27 05:10:02;;;;;;;12.50;4.97;;;;;;;;;;5123632;27;20135;-64
2022/04/27 05:12:29;;;;;;;10.85;5.63;;;;;;;;;;5128498;27;20084;-64
2022/04/27 05:14:55;;;;;;;13.68;5.50;;;;;;;;;;5127892;27;20213;-64
2022/04/27 05:17:23;;;;;;;8.80;4.85;;;;;;;;;;5117467;27;20135;-64
2022/04/27 05:19:51;;;;;;;12.77;5.97;;;;;;;;;;5119509;27;20580;-64
2022/04/27 05:22:18;;;;;;;9.98;5.45;;;;;;;;;;5128393;27;20460;-64
2022/04/27 05:24:44;;;;;;;12.07;5.80;;;;;;;;;;5128368;27;20052;-64
2022/04/27 05:27:11;;;;;;;12.40;5.55;;;;;;;;;;5129671;27;20087;-64
2022/04/27 05:32:22;;;;;;;13.48;5.88;;;;;;;;;;5114047;27;20080;-64
2022/04/27 05:34:48;;;;;;;11.95;6.03;;;;;;;;;;5114840;27;20087;-64
2022/04/27 05:37:14;;;;;;;11.02;6.32;;;;;;;;;;5127074;27;20506;-64
2022/04/27 05:39:41;;;;;;;14.80;7.10;;;;;;;;;;5117718;27;20153;-64
2022/04/27 05:42:08;;;;;;;11.52;6.35;;;;;;;;;;5122494;27;20082;-64
2022/04/27 05:44:34;;;;;;;15.77;6.40;;;;;;;;;;5114004;27;20052;-64
2022/04/27 05:47:01;;;;;;;13.02;7.00;;;;;;;;;;5113258;27;20133;-64
2022/04/27 05:49:27;;;;;;;15.43;6.60;;;;;;;;;;5114987;27;20101;-64
2022/04/27 05:51:54;;;;;;;13.82;7.28;;;;;;;;;;5114668;27;20155;-64
2022/04/27 05:54:20;;;;;;;11.60;6.57;;;;;;;;;;5131634;27;20592;-65
2022/04/27 05:56:46;;;;;;;10.02;5.40;;;;;;;;;;5127526;27;20170;-64
2022/04/27 05:59:13;;;;;;;14.55;5.65;;;;;;;;;;5116027;27;20075;-64
2022/04/27 06:01:39;;;;;;;11.90;5.63;;;;;;;;;;5121615;27;20077;-63
2022/04/27 06:04:06;;;;;;;11.32;5.40;;;;;;;;;;5135329;27;20062;-64
2022/04/27 06:06:33;;;;;;;13.07;5.28;;;;;;;;;;5134904;27;20055;-63
2022/04/27 06:08:59;;;;;;;9.93;4.38;;;;;;;;;;5134782;27;20109;-63
2022/04/27 06:11:25;;;;;;;9.68;4.30;;;;;;;;;;5135767;27;20086;-64
2022/04/27 06:13:52;;;;;;;10.88;6.00;;;;;;;;;;5132006;27;20513;-62
2022/04/27 06:16:18;;;;;;;13.07;6.50;;;;;;;;;;5125943;27;20079;-63
2022/04/27 06:18:45;;;;;;;11.45;6.40;;;;;;;;;;5133082;27;20504;-63
2022/04/27 06:21:11;;;;;;;10.70;5.93;;;;;;;;;;5123605;27;20139;-63
2022/04/27 06:23:38;;;;;;;10.98;5.88;;;;;;;;;;5114647;27;20495;-63
2022/04/27 06:26:08;;;;;;;10.70;6.22;;;;;;;;;;5113978;27;20102;-63
2022/04/27 06:28:34;;;;;;;545.58;59.63;;;;;;;;;;5121664;27;20068;-64
2022/04/27 06:31:01;;;;;;;29.80;8.18;;;;;;;;;;5119703;27;20418;-64
2022/04/27 06:33:28;;;;;;;1378.05;92.38;;;;;;;;;;5122093;27;20474;-63
2022/04/27 06:36:00;;;;;;;35.75;6.82;;;;;;;;;;5119116;27;20051;-63
2022/04/27 06:38:26;;;;;;;11.10;6.10;;;;;;;;;;5131384;27;20051;-63
2022/04/27 06:41:12;;;;;;;17.67;6.93;;;;;;;;;;5127470;27;20058;-63
2022/04/27 06:43:39;;;;;;;11.95;6.47;;;;;;;;;;5128840;27;20082;-63
2022/04/27 06:46:05;;;;;;;11.95;5.97;;;;;;;;;;5118177;27;20171;-63
2022/04/27 06:48:32;;;;;;;14.27;5.75;;;;;;;;;;5116166;27;20059;-63
2022/04/27 06:50:59;;;;;;;12.98;5.75;;;;;;;;;;5119317;27;20085;-65
2022/04/27 06:53:25;;;;;;;14.23;4.00;;;;;;;;;;5110314;27;20091;-64
2022/04/27 06:55:51;;;;;;;8.18;3.33;;;;;;;;;;5113443;27;20183;-64
2022/04/27 06:58:18;;;;;;;7.78;2.53;;;;;;;;;;5112728;27;20076;-64
2022/04/27 07:00:44;;;;;;;6.32;2.70;;;;;;;;;;5121512;27;20056;-64
2022/04/27 07:03:15;;;;;;;10.38;2.97;;;;;;;;;;5118745;27;20533;-64
2022/04/27 07:05:42;;;;;;;9.73;3.67;;;;;;;;;;5120743;27;20497;-64
2022/04/27 07:08:09;;;;;;;10.93;4.18;;;;;;;;;;5125077;27;20098;-64
2022/04/27 07:10:38;;;;;;;10.60;4.40;;;;;;;;;;5111716;27;20502;-64
2022/04/27 07:13:05;;;;;;;10.27;3.97;;;;;;;;;;5129886;27;20472;-64
2022/04/27 07:15:32;;;;;;;7.40;3.22;;;;;;;;;;5112473;27;20048;-65
2022/04/27 07:17:58;;;;;;;7.63;3.70;;;;;;;;;;5110080;27;20131;-64
2022/04/27 07:20:25;;;;;;;10.27;3.42;;;;;;;;;;5109491;27;20048;-64
2022/04/27 07:22:51;;;;;;;8.23;3.40;;;;;;;;;;5123652;27;20078;-64
2022/04/27 07:25:18;;;;;;;9.20;3.75;;;;;;;;;;5115448;27;20149;-64
2022/04/27 07:27:45;;;;;;;7.95;3.40;;;;;;;;;;5113444;27;20105;-64
2022/04/27 07:30:11;;;;;;;8.68;3.00;;;;;;;;;;5121456;27;20109;-64
2022/04/27 07:32:38;;;;;;;8.50;3.20;;;;;;;;;;5110719;27;20176;-65
2022/04/27 07:35:05;;;;;;;10.43;3.13;;;;;;;;;;5108827;27;20052;-65
2022/04/27 07:37:31;;;;;;;11.88;2.85;;;;;;;;;;5110643;27;20076;-65
2022/04/27 07:39:58;;;;;;;8.65;2.47;;;;;;;;;;5123443;27;20143;-66
2022/04/27 07:42:24;;;;;;;5.68;2.40;;;;;;;;;;5124584;27;20069;-63
2022/04/27 07:44:51;;;;;;;8.25;2.53;;;;;;;;;;5126653;27;20094;-63
2022/04/27 07:47:17;;;;;;;5.57;2.13;;;;;;;;;;5125698;27;20099;-63
2022/04/27 07:49:46;;;;;;;8.70;2.42;;;;;;;;;;5126765;27;20151;-65
2022/04/27 07:52:12;;;;;;;4.75;2.20;;;;;;;;;;5108403;27;21488;-63
2022/04/27 07:54:41;;;;;;;7.45;3.03;;;;;;;;;;5107424;27;20060;-63
2022/04/27 07:57:07;;;;;;;8.48;2.75;;;;;;;;;;5118914;27;20055;-63
2022/04/27 07:59:34;;;;;;;6.38;2.20;;;;;;;;;;5108732;27;20087;-64
2022/04/27 08:02:01;;;;;;;9.70;2.30;;;;;;;;;;5108339;27;20055;-63
2022/04/27 08:04:27;;;;;;;8.48;2.42;;;;;;;;;;5115420;27;20155;-63
2022/04/27 08:06:54;;;;;;;5.13;2.13;;;;;;;;;;5124305;27;20079;-64
2022/04/27 08:09:20;;;;;;;12.13;2.03;;;;;;;;;;5119601;27;20132;-65
2022/04/27 08:11:46;;;;;;;4.97;2.10;;;;;;;;;;5117595;27;20055;-64
2022/04/27 08:14:13;;;;;;;5.20;2.10;;;;;;;;;;5112067;27;20129;-65
2022/04/27 08:16:39;;;;;;;11.85;3.25;;;;;;;;;;5109286;27;20069;-65
2022/04/27 08:19:05;;;;;;;4.93;1.83;;;;;;;;;;5125731;27;20094;-66
2022/04/27 08:21:32;;;;;;;10.25;1.92;;;;;;;;;;5128917;27;20094;-64
2022/04/27 08:23:59;;;;;;;10.77;2.42;;;;;;;;;;5122006;27;20127;-64
2022/04/27 08:26:26;;;;;;;10.10;2.50;;;;;;;;;;5128672;27;20140;-64
2022/04/27 08:28:52;;;;;;;9.38;2.70;;;;;;;;;;5129545;27;20313;-64
2022/04/27 08:31:20;;;;;;;5.95;2.22;;;;;;;;;;5128254;27;20104;-64
2022/04/27 08:33:47;;;;;;;7.53;2.10;;;;;;;;;;5128714;27;20462;-64
2022/04/27 08:36:13;;;;;;;6.25;2.28;;;;;;;;;;5128872;27;20960;-65
2022/04/27 08:38:55;;;;;;;6.30;2.30;;;;;;;;;;5129456;27;20143;-64
2022/04/27 08:41:22;;;;;;;7.13;2.10;;;;;;;;;;5124852;27;20494;-66
2022/04/27 08:43:48;;;;;;;6.72;1.90;;;;;;;;;;5115284;27;20071;-65
2022/04/27 08:46:15;;;;;;;8.18;2.28;;;;;;;;;;5124188;27;20134;-66
2022/04/27 08:48:45;;;;;;;7.22;2.00;;;;;;;;;;5120025;27;20058;-64
2022/04/27 08:51:12;;;;;;;5.43;2.15;;;;;;;;;;5128555;27;20051;-64
2022/04/27 08:53:39;;;;;;;7.15;2.00;;;;;;;;;;5115999;27;20105;-66
2022/04/27 08:56:05;;;;;;;6.60;2.00;;;;;;;;;;5127778;27;20090;-64
2022/04/27 08:58:32;;;;;;;8.00;2.20;;;;;;;;;;5130712;27;20054;-64
2022/04/27 09:01:07;;;;;;;4.43;1.77;;;;;;;;;;5125071;27;20606;-65
2022/04/27 09:03:36;;;;;;;7.85;1.90;;;;;;;;;;5115380;27;20051;-64
2022/04/27 09:06:11;;;;;;;6.03;2.00;;;;;;;;;;5125345;27;20055;-64
2022/04/27 09:08:41;;;;;;;6.13;1.85;;;;;;;;;;5109693;27;20063;-64
2022/04/27 09:11:11;;;;;;;7.82;2.22;;;;;;;;;;5113615;27;20048;-63
2022/04/27 09:13:38;;;;;;;8.50;2.07;;;;;;;;;;5129113;27;20082;-64
2022/04/27 09:16:04;;;;;;;7.90;2.08;;;;;;;;;;5121472;27;20121;-65
2022/04/27 09:21:56;;;;;;;5.35;1.88;;;;;;;;;;5084510;28;20084;-65
2022/04/27 09:24:22;;;;;;;6.07;2.20;;;;;;;;;;5084292;28;20079;-64
2022/04/27 09:26:59;;;;;;;6.60;2.10;;;;;;;;;;5100549;27;20556;-66
2022/04/27 09:29:26;;;;;;;7.45;2.70;;;;;;;;;;5129386;27;20055;-64
2022/04/27 09:31:56;;;;;;;8.77;2.00;;;;;;;;;;5116759;27;20052;-64
2022/04/27 09:34:29;;;;;;;4.90;2.00;;;;;;;;;;5108795;27;20201;-65
2022/04/27 09:36:59;;;;;;;7.82;2.28;;;;;;;;;;5107275;27;20132;-65
2022/04/27 09:39:26;;;;;;;6.72;2.30;;;;;;;;;;5108734;27;20155;-64
2022/04/27 09:41:52;;;;;;;8.75;2.42;;;;;;;;;;5108218;27;20067;-65
2022/04/27 09:44:27;;;;;;;4.85;1.95;;;;;;;;;;5108046;27;20088;-64
2022/04/27 09:46:53;;;;;;;6.97;2.20;;;;;;;;;;5107804;27;20718;-64
2022/04/27 09:49:19;;;;;;;8.38;2.00;;;;;;;;;;5108432;27;20064;-65
2022/04/27 09:51:57;;;;;;;7.20;1.92;;;;;;;;;;5121364;27;20112;-64
2022/04/27 09:54:36;;;;;;;5.82;2.05;;;;;;;;;;5114623;27;20084;-64
2022/04/27 09:57:02;;;;;;;;;;;;;;;;;;5108580;27;20549;-63
2022/04/27 09:59:34;;;;;;;9.07;1.98;;;;;;;;;;5106913;28;45141;-63
2022/04/27 10:02:07;;;;;;;8.65;1.65;;;;;;;;;;5118813;27;20972;-63
2022/04/27 10:04:36;;;;;;;14.63;3.63;;;;;;;;;;5124966;27;20513;-63
2022/04/27 10:07:04;;;;;;;14.82;4.55;;;;;;;;;;5124716;27;20178;-63
2022/04/27 10:09:31;;;;;;;8.35;2.53;;;;;;;;;;5114959;27;20048;-63
2022/04/27 10:12:13;;;;;;;8.20;2.90;;;;;;;;;;5128680;27;20063;-63
2022/04/27 10:14:40;;;;;;;6.97;2.15;;;;;;;;;;5129348;27;20944;-63
2022/04/27 10:17:06;;;;;;;5.10;1.70;;;;;;;;;;5132659;27;20098;-63
2022/04/27 10:19:33;;;;;;;5.22;1.70;;;;;;;;;;5127715;27;20596;-63
2022/04/27 10:22:01;;;;;;;5.55;2.00;;;;;;;;;;5127696;27;20055;-63
2022/04/27 10:24:34;;;;;;;7.57;2.28;;;;;;;;;;5122814;27;20079;-63
2022/04/27 10:27:18;;;;;;;7.18;2.08;;;;;;;;;;5110768;27;20578;-63
2022/04/27 10:29:46;;;;;;;6.55;1.90;;;;;;;;;;5116158;27;20075;-63
2022/04/27 10:32:32;;;;;;;6.53;1.88;;;;;;;;;;5125932;27;20143;-63
2022/04/27 10:35:14;;;;;;;6.38;2.20;;;;;;;;;;5125231;27;20090;-63
2022/04/27 10:37:43;;;;;;;7.50;2.20;;;;;;;;;;5111071;27;20083;-65
2022/04/27 10:40:25;;;;;;;5.22;1.90;;;;;;;;;;5111648;27;20091;-64
2022/04/27 10:42:51;;;;;;;5.32;1.88;;;;;;;;;;5111505;27;20052;-64
2022/04/27 10:45:27;;;;;;;6.57;1.73;;;;;;;;;;5111342;27;20052;-64
2022/04/27 10:47:54;;;;;;;6.80;1.88;;;;;;;;;;5122115;27;20052;-64
2022/04/27 10:50:23;;;;;;;4.85;1.90;;;;;;;;;;5132033;27;20105;-64
2022/04/27 10:52:55;;;;;;;8.95;2.10;;;;;;;;;;5110789;27;20477;-64
2022/04/27 10:55:43;;;;;;;7.22;1.77;;;;;;;;;;5114216;27;20083;-64
2022/04/27 10:58:13;;;;;;;6.50;1.80;;;;;;;;;;5119076;27;20055;-64
2022/04/27 11:00:58;;;;;;;8.48;1.80;;;;;;;;;;5110670;27;20109;-66
2022/04/27 11:03:26;;;;;;;6.35;1.70;;;;;;;;;;5111691;27;20055;-65
2022/04/27 11:05:52;;;;;;;4.50;1.65;;;;;;;;;;5131832;27;20097;-65
2022/04/27 11:08:25;;;;;;;7.65;2.40;;;;;;;;;;5116588;27;20501;-65
2022/04/27 11:10:54;;;;;;;5.55;1.98;;;;;;;;;;5122840;27;20048;-65
2022/04/27 11:13:25;;;;;;;6.50;2.10;;;;;;;;;;5131532;27;20094;-65
2022/04/27 11:15:51;;;;;;;8.07;2.30;;;;;;;;;;5131275;27;20977;-65
2022/04/27 11:18:19;;;;;;;7.22;2.03;;;;;;;;;;5127623;27;20057;-65
2022/04/27 11:20:45;;;;;;;5.97;2.17;;;;;;;;;;5129523;27;20056;-62
2022/04/27 11:23:22;;;;;;;6.80;2.42;;;;;;;;;;5131042;27;20513;-63
2022/04/27 11:25:50;;;;;;;8.20;2.78;;;;;;;;;;5131213;27;20052;-64
2022/04/27 11:28:17;;;;;;;7.95;2.10;;;;;;;;;;5128141;27;20080;-64
2022/04/27 11:30:44;;;;;;;7.80;2.30;;;;;;;;;;5121604;27;21618;-64
2022/04/27 11:33:10;;;;;;;5.03;2.10;;;;;;;;;;5119851;27;21105;-65
2022/04/27 11:35:38;;;;;;;5.53;2.00;;;;;;;;;;5120016;27;20592;-64
2022/04/27 11:38:06;;;;;;;6.43;2.20;;;;;;;;;;5121956;27;20051;-64
2022/04/27 11:40:34;;;;;;;6.05;1.98;;;;;;;;;;5129330;27;20086;-64
2022/04/27 11:43:00;;;;;;;;;;;;;;;;;;5118705;27;20143;-64
2022/04/27 11:45:27;;;;;;;4.65;2.05;;;;;;;;;;5120942;27;45417;-64
2022/04/27 11:47:58;;;;;;;7.10;2.50;;;;;;;;;;5119406;27;20052;-66
2022/04/27 11:50:25;;;;;;;7.70;2.45;;;;;;;;;;5127095;27;20113;-64
2022/04/27 11:52:55;;;;;;;7.22;2.35;;;;;;;;;;5109667;27;20869;-64
2022/04/27 11:55:21;;;;;;;6.50;1.85;;;;;;;;;;5109574;28;20091;-64
2022/04/27 11:57:49;;;;;;;7.40;2.38;;;;;;;;;;5108499;28;20076;-64
2022/04/27 12:00:23;;;;;;;5.40;2.13;;;;;;;;;;5110017;28;20052;-64
2022/04/27 12:02:49;;;;;;;5.00;2.20;;;;;;;;;;5109756;28;20056;-64
2022/04/27 12:05:16;;;;;;;7.53;2.38;;;;;;;;;;5109853;28;20543;-64
2022/04/27 12:07:49;;;;;;;6.95;2.50;;;;;;;;;;5109399;27;20407;-64
2022/04/27 12:10:15;;;;;;;7.47;2.13;;;;;;;;;;5109579;28;20052;-64
2022/04/27 12:12:42;;;;;;;7.03;2.10;;;;;;;;;;5109464;28;20505;-64
2022/04/27 12:15:11;;;;;;;6.15;2.20;;;;;;;;;;5109941;28;20079;-64
2022/04/27 12:17:57;;;;;;;6.78;2.25;;;;;;;;;;5109580;27;20054;-64
2022/04/27 12:20:27;;;;;;;6.57;2.05;;;;;;;;;;5109266;28;20166;-64
2022/04/27 12:22:55;;;;;;;6.72;2.30;;;;;;;;;;5109629;28;20147;-64
2022/04/27 12:25:21;;;;;;;;;;;;;;;;;;5110709;28;20048;-64
2022/04/27 12:27:48;;;;;;;9.05;2.58;;;;;;;;;;5108378;28;44569;-64
2022/04/27 12:30:19;;;;;;;7.32;2.20;;;;;;;;;;5109399;28;20144;-64
2022/04/27 12:32:46;;;;;;;10.32;2.20;;;;;;;;;;5108553;28;20114;-64
2022/04/27 12:38:07;;;;;;;9.82;2.00;;;;;;;;;;5109121;27;20044;-64
2022/04/27 12:40:33;;;;;;;13.85;2.72;;;;;;;;;;5109919;28;20091;-64
2022/04/27 12:43:00;;;;;;;9.90;2.38;;;;;;;;;;5109160;27;20109;-64
2022/04/27 12:45:27;;;;;;;9.32;2.08;;;;;;;;;;5109402;28;20131;-64
2022/04/27 12:47:53;;;;;;;8.85;2.40;;;;;;;;;;5109314;28;20061;-64
2022/04/27 12:50:20;;;;;;;6.90;2.05;;;;;;;;;;5109190;27;20052;-64
2022/04/27 12:52:47;;;;;;;8.13;1.90;;;;;;;;;;5108796;28;20238;-64
2022/04/27 12:55:14;;;;;;;11.63;2.55;;;;;;;;;;5108783;28;20668;-64
2022/04/27 12:57:44;;;;;;;11.90;2.20;;;;;;;;;;5108759;28;20102;-64
2022/04/27 13:00:11;;;;;;;7.63;1.90;;;;;;;;;;5108686;27;20052;-64
2022/04/27 13:02:37;;;;;;;11.30;2.60;;;;;;;;;;5109688;28;20091;-64
2022/04/27 13:05:05;;;;;;;8.77;2.13;;;;;;;;;;5108978;27;20134;-63
2022/04/27 13:07:31;;;;;;;11.52;2.60;;;;;;;;;;5108860;28;20052;-64
2022/04/27 13:12:43;;;;;;;9.98;2.38;;;;;;;;;;5109223;28;20166;-64
2022/04/27 13:15:11;;;;;;;9.35;2.40;;;;;;;;;;5109681;28;20064;-64
2022/04/27 13:17:37;;;;;;;9.10;2.03;;;;;;;;;;5108804;28;20133;-64
2022/04/27 13:20:05;;;;;;;10.32;2.13;;;;;;;;;;5107969;27;20105;-64
2022/04/27 13:22:31;;;;;;;7.72;1.90;;;;;;;;;;5108066;27;20093;-64
2022/04/27 13:24:57;;;;;;;9.70;2.22;;;;;;;;;;5108862;28;20072;-64
2022/04/27 13:27:25;;;;;;;9.70;2.05;;;;;;;;;;5108710;27;20076;-63
2022/04/27 13:29:52;;;;;;;15.93;2.47;;;;;;;;;;5108779;27;20052;-64
2022/04/27 13:32:18;;;;;;;6.55;1.75;;;;;;;;;;5108947;28;20136;-64
2022/04/27 13:34:44;;;;;;;7.78;2.22;;;;;;;;;;5108546;28;20059;-64
2022/04/27 13:37:11;;;;;;;8.38;2.35;;;;;;;;;;5108839;28;20076;-64
2022/04/27 13:39:37;;;;;;;8.02;2.17;;;;;;;;;;5109099;28;20052;-64
2022/04/27 13:42:05;;;;;;;12.33;2.30;;;;;;;;;;5108375;27;20057;-64
2022/04/27 13:44:33;;;;;;;9.10;1.77;;;;;;;;;;5107977;27;20294;-64
2022/04/27 13:46:59;;;;;;;11.30;1.98;;;;;;;;;;5107688;27;20143;-64
2022/04/27 13:49:26;;;;;;;10.15;1.83;;;;;;;;;;5111728;27;20084;-64
2022/04/27 13:51:53;;;;;;;11.10;2.00;;;;;;;;;;5112050;27;20118;-64
2022/04/27 13:54:19;;;;;;;10.38;2.15;;;;;;;;;;5112494;28;20522;-64
2022/04/27 13:56:45;;;;;;;10.23;2.60;;;;;;;;;;5111580;28;20578;-64
2022/04/27 13:59:12;;;;;;;8.48;2.22;;;;;;;;;;5111912;28;20146;-64
2022/04/27 14:01:38;;;;;;;12.55;2.45;;;;;;;;;;5111588;27;20066;-64
2022/04/27 14:04:06;;;;;;;9.77;2.50;;;;;;;;;;5111154;27;20055;-64
2022/04/27 14:06:32;;;;;;;7.07;1.90;;;;;;;;;;5111799;28;20056;-64
2022/04/27 14:08:59;;;;;;;11.15;2.15;;;;;;;;;;5110449;27;20129;-64
2022/04/27 14:14:10;;;;;;;6.57;2.17;;;;;;;;;;5111973;27;20580;-64
2022/04/27 14:19:21;;;;;;;9.93;1.90;;;;;;;;;;5110992;28;20522;-64
2022/04/27 14:21:48;;;;;;;8.15;1.98;;;;;;;;;;5111507;27;20062;-64
2022/04/27 14:24:14;;;;;;;10.20;2.00;;;;;;;;;;5111833;27;20494;-64
2022/04/27 14:26:40;;;;;;;9.35;2.03;;;;;;;;;;5111508;27;20075;-64
2022/04/27 14:29:07;;;;;;;8.65;2.00;;;;;;;;;;5110663;27;20109;-64
2022/04/27 14:31:33;;;;;;;7.43;1.95;;;;;;;;;;5110484;28;20052;-64
2022/04/27 14:33:59;;;;;;;8.55;2.10;;;;;;;;;;5110861;28;20130;-64
2022/04/27 14:36:26;;;;;;;13.68;3.38;;;;;;;;;;5109992;27;20056;-64
2022/04/27 14:38:53;;;;;;;8.30;2.30;;;;;;;;;;5110286;27;20095;-64
2022/04/27 14:41:20;;;;;;;9.43;2.00;;;;;;;;;;5110292;27;20213;-64
2022/04/27 14:43:47;;;;;;;9.40;2.13;;;;;;;;;;5110182;27;20056;-64
2022/04/27 14:46:14;;;;;;;7.22;1.85;;;;;;;;;;5109990;27;20850;-64
2022/04/27 14:48:40;;;;;;;7.95;1.88;;;;;;;;;;5110169;28;20052;-64
2022/04/27 14:51:07;;;;;;;10.32;2.17;;;;;;;;;;5110813;27;20079;-64
2022/04/27 14:53:33;;;;;;;8.10;2.20;;;;;;;;;;5110566;27;20103;-64
2022/04/27 14:56:00;;;;;;;6.82;1.80;;;;;;;;;;5110473;28;20143;-64
2022/04/27 14:58:26;;;;;;;9.18;2.00;;;;;;;;;;5110385;28;20056;-64
2022/04/27 15:00:54;;;;;;;9.98;1.83;;;;;;;;;;5108804;28;20210;-64
2022/04/27 15:03:20;;;;;;;8.87;1.80;;;;;;;;;;5109259;28;20044;-64
2022/04/27 15:05:47;;;;;;;6.60;2.40;;;;;;;;;;5110008;28;20414;-64